createdAt,value
2022-08-20T00:02:40.975Z,98077.97
2022-08-20T00:05:48.448Z,98085.50
2022-08-20T00:08:54.328Z,98088.72
2022-08-20T00:11:57.846Z,98081.91
2022-08-20T00:15:01.402Z,98085.25
2022-08-20T00:18:05.212Z,98086.34
2022-08-20T00:21:10.946Z,98084.78
2022-08-20T00:24:14.978Z,98087.88
2022-08-20T00:27:17.681Z,98090.44
2022-08-20T00:30:20.789Z,98093.16
2022-08-20T00:33:25.078Z,98094.19
2022-08-20T00:36:32.762Z,98094.75
2022-08-20T00:39:37.434Z,98097.28
2022-08-20T00:42:44.733Z,98095.47
2022-08-20T00:45:47.704Z,98096.16
2022-08-20T00:48:53.780Z,98090.13
2022-08-20T00:52:00.714Z,98094.66
2022-08-20T00:55:07.585Z,98102.72
2022-08-20T00:58:10.539Z,98102.50
2022-08-20T01:01:14.209Z,98102.03
2022-08-20T01:04:16.954Z,98108.28
2022-08-20T01:07:20.575Z,98110.09
2022-08-20T01:10:27.671Z,98102.13
2022-08-20T01:13:31.820Z,98112.25
2022-08-20T01:16:36.534Z,98123.81
2022-08-20T01:19:49.149Z,98124.03
2022-08-20T01:23:17.584Z,98121.53
2022-08-20T01:26:24.836Z,98131.94
2022-08-20T01:29:33.590Z,98129.47
2022-08-20T01:32:36.378Z,98135.56
2022-08-20T01:35:41.483Z,98130.44
2022-08-20T01:38:53.108Z,98133.59
2022-08-20T01:42:12.597Z,98130.59
2022-08-20T01:45:26.963Z,98134.56
2022-08-20T01:48:31.642Z,98137.28
2022-08-20T01:51:34.434Z,98139.34
2022-08-20T01:54:37.214Z,98137.75
2022-08-20T01:57:41.940Z,98147.63
2022-08-20T02:00:44.769Z,98141.84
2022-08-20T02:03:47.669Z,98140.59
2022-08-20T02:06:56.117Z,98147.63
2022-08-20T02:10:01.135Z,98151.16
2022-08-20T02:13:07.879Z,98155.81
2022-08-20T02:16:10.631Z,98156.94
2022-08-20T02:19:17.569Z,98156.63
2022-08-20T02:22:27.062Z,98151.81
2022-08-20T02:25:35.066Z,98147.06
2022-08-20T02:28:39.215Z,98151.69
2022-08-20T02:32:32.575Z,98157.03
2022-08-20T02:35:11.994Z,98169.69
2022-08-20T02:38:15.877Z,98164.59
2022-08-20T02:41:18.577Z,98156.88
2022-08-20T02:44:22.742Z,98159.75
2022-08-20T02:47:25.977Z,98155.75
2022-08-20T02:50:29.533Z,98156.19
2022-08-20T02:53:34.954Z,98162.13
2022-08-20T02:56:37.689Z,98159.06
2022-08-20T02:59:41.919Z,98157.50
2022-08-20T03:02:45.454Z,98157.16
2022-08-20T03:05:48.142Z,98145.91
2022-08-20T03:08:50.891Z,98142.38
2022-08-20T03:11:54.530Z,98142.38
2022-08-20T03:14:59.001Z,98146.72
2022-08-20T03:18:03.153Z,98142.53
2022-08-20T03:21:07.130Z,98143.00
2022-08-20T03:24:13.052Z,98138.78
2022-08-20T03:27:15.782Z,98134.94
2022-08-20T03:30:20.435Z,98146.28
2022-08-20T03:33:24.113Z,98142.41
2022-08-20T03:36:29.008Z,98137.09
2022-08-20T03:39:31.957Z,98136.78
2022-08-20T03:42:34.734Z,98142.78
2022-08-20T03:45:41.454Z,98139.38
2022-08-20T03:48:44.215Z,98144.63
2022-08-20T03:51:57.820Z,98137.56
2022-08-20T03:55:01.022Z,98142.69
2022-08-20T03:58:07.062Z,98141.44
2022-08-20T04:01:45.099Z,98157.00
2022-08-20T04:04:33.902Z,98150.84
2022-08-20T04:07:37.846Z,98153.03
2022-08-20T04:10:40.797Z,98151.44
2022-08-20T04:13:43.536Z,98145.53
2022-08-20T04:16:48.943Z,98148.38
2022-08-20T04:19:51.921Z,98147.91
2022-08-20T04:22:59.421Z,98152.22
2022-08-20T04:26:02.469Z,98149.16
2022-08-20T04:29:05.402Z,98155.88
2022-08-20T04:32:09.761Z,98166.31
2022-08-20T04:35:18.189Z,98171.09
2022-08-20T04:38:22.542Z,98169.16
2022-08-20T04:41:25.257Z,98172.00
2022-08-20T04:44:28.808Z,98167.78
2022-08-20T04:47:34.833Z,98172.91
2022-08-20T04:50:40.534Z,98174.03
2022-08-20T04:53:44.653Z,98171.78
2022-08-20T04:56:55.077Z,98174.16
2022-08-20T04:59:59.565Z,98173.50
2022-08-20T05:03:04.364Z,98172.81
2022-08-20T05:06:11.008Z,98177.44
2022-08-20T05:09:13.720Z,98179.88
2022-08-20T05:12:18.074Z,98187.25
2022-08-20T05:15:21.230Z,98189.50
2022-08-20T05:18:26.522Z,98195.41
2022-08-20T05:21:29.252Z,98193.59
2022-08-20T05:24:32.295Z,98195.53
2022-08-20T05:27:34.978Z,98198.25
2022-08-20T05:30:39.413Z,98199.81
2022-08-20T05:33:43.866Z,98206.44
2022-08-20T05:36:49.563Z,98203.25
2022-08-20T05:39:52.318Z,98207.44
2022-08-20T05:42:55.672Z,98200.53
2022-08-20T05:45:59.033Z,98209.41
2022-08-20T05:49:03.159Z,98212.22
2022-08-20T05:52:06.254Z,98223.34
2022-08-20T05:55:13.191Z,98215.75
2022-08-20T05:58:18.537Z,98218.06
2022-08-20T06:01:21.336Z,98217.16
2022-08-20T06:04:24.763Z,98215.56
2022-08-20T06:07:28.122Z,98214.31
2022-08-20T06:10:30.907Z,98207.13
2022-08-20T06:13:33.633Z,98220.19
2022-08-20T06:16:37.266Z,98209.03
2022-08-20T06:19:44.108Z,98207.56
2022-08-20T06:22:47.270Z,98212.56
2022-08-20T06:25:50.842Z,98212.56
2022-08-20T06:28:54.243Z,98223.13
2022-08-20T06:31:57.436Z,98227.94
2022-08-20T06:35:03.221Z,98228.47
2022-08-20T06:38:06.848Z,98232.34
2022-08-20T06:41:09.554Z,98233.84
2022-08-20T06:44:12.273Z,98222.91
2022-08-20T06:47:15.157Z,98228.38
2022-08-20T06:50:23.298Z,98229.06
2022-08-20T06:53:25.997Z,98230.19
2022-08-20T06:56:28.892Z,98237.13
2022-08-20T06:59:31.594Z,98235.56
2022-08-20T07:02:35.849Z,98231.91
2022-08-20T07:05:42.898Z,98222.94
2022-08-20T07:08:46.254Z,98227.69
2022-08-20T07:11:49.380Z,98227.38
2022-08-20T07:14:52.112Z,98233.38
2022-08-20T07:18:00.938Z,98229.59
2022-08-20T07:21:05.995Z,98224.59
2022-08-20T07:24:09.633Z,98225.06
2022-08-20T07:27:12.334Z,98234.94
2022-08-20T07:30:57.065Z,98233.94
2022-08-20T07:33:59.827Z,98239.03
2022-08-20T07:37:04.279Z,98243.22
2022-08-20T07:40:13.169Z,98246.25
2022-08-20T07:43:16.336Z,98245.31
2022-08-20T07:46:21.461Z,98249.13
2022-08-20T07:49:24.233Z,98255.00
2022-08-20T07:52:28.470Z,98257.22
2022-08-20T07:55:31.878Z,98253.97
2022-08-20T07:58:36.807Z,98257.50
2022-08-20T08:01:39.581Z,98254.22
2022-08-20T08:04:42.685Z,98253.63
2022-08-20T08:07:47.366Z,98248.94
2022-08-20T08:10:55.737Z,98255.19
2022-08-20T08:14:00.757Z,98252.47
2022-08-20T08:17:05.588Z,98245.31
2022-08-20T08:20:12.313Z,98242.75
2022-08-20T08:23:24.812Z,98243.84
2022-08-20T08:26:34.908Z,98247.97
2022-08-20T08:29:38.488Z,98242.53
2022-08-20T08:33:01.783Z,98242.72
2022-08-20T08:36:09.560Z,98238.19
2022-08-20T08:39:13.724Z,98240.06
2022-08-20T08:42:27.546Z,98235.91
2022-08-20T08:45:36.726Z,98236.28
2022-08-20T08:48:43.614Z,98239.81
2022-08-20T08:51:50.413Z,98243.03
2022-08-20T08:54:57.965Z,98254.38
2022-08-20T08:58:04.341Z,98254.03
2022-08-20T09:01:55.653Z,98246.91
2022-08-20T09:04:44.810Z,98247.59
2022-08-20T09:07:51.068Z,98250.81
2022-08-20T09:11:02.377Z,98247.25
2022-08-20T09:14:05.053Z,98234.47
2022-08-20T09:17:07.949Z,98234.59
2022-08-20T09:20:11.385Z,98248.19
2022-08-20T09:23:14.088Z,98243.25
2022-08-20T09:26:18.141Z,98245.00
2022-08-20T09:29:20.850Z,98255.84
2022-08-20T09:32:26.122Z,98250.09
2022-08-20T09:35:29.745Z,98244.63
2022-08-20T09:38:32.745Z,98243.53
2022-08-20T09:41:36.843Z,98243.81
2022-08-20T09:44:39.954Z,98240.31
2022-08-20T09:47:55.005Z,98244.06
2022-08-20T09:50:59.887Z,98235.28
2022-08-20T09:54:03.348Z,98235.47
2022-08-20T09:57:10.056Z,98232.19
2022-08-20T10:00:13.455Z,98223.00
2022-08-20T10:03:17.097Z,98230.84
2022-08-20T10:06:21.126Z,98235.38
2022-08-20T10:09:24.333Z,98242.66
2022-08-20T10:12:29.118Z,98238.19
2022-08-20T10:15:32.537Z,98241.53
2022-08-20T10:18:36.468Z,98253.31
2022-08-20T10:21:39.520Z,98251.00
2022-08-20T10:24:42.378Z,98254.47
2022-08-20T10:27:46.721Z,98256.53
2022-08-20T10:30:49.795Z,98258.97
2022-08-20T10:33:52.702Z,98250.53
2022-08-20T10:36:55.382Z,98243.97
2022-08-20T10:39:58.221Z,98240.56
2022-08-20T10:43:03.066Z,98226.72
2022-08-20T10:46:05.993Z,98218.63
2022-08-20T10:49:08.687Z,98225.72
2022-08-20T10:52:12.034Z,98229.03
2022-08-20T10:55:14.830Z,98226.09
2022-08-20T10:58:18.928Z,98234.00
2022-08-20T11:01:31.264Z,98231.84
2022-08-20T11:04:36.410Z,98229.94
2022-08-20T11:07:55.484Z,98238.16
2022-08-20T11:10:59.311Z,98239.41
2022-08-20T11:14:03.419Z,98241.88
2022-08-20T11:17:07.546Z,98240.56
2022-08-20T11:20:12.401Z,98240.31
2022-08-20T11:23:15.137Z,98247.78
2022-08-20T11:26:23.215Z,98251.34
2022-08-20T11:29:30.966Z,98254.16
2022-08-20T11:32:36.237Z,98251.41
2022-08-20T11:35:48.380Z,98248.16
2022-08-20T11:38:52.617Z,98246.31
2022-08-20T11:41:55.556Z,98236.84
2022-08-20T11:44:59.994Z,98245.75
2022-08-20T11:48:02.711Z,98242.50
2022-08-20T11:51:05.702Z,98244.13
2022-08-20T11:54:08.587Z,98245.75
2022-08-20T11:57:11.321Z,98253.31
2022-08-20T12:00:19.251Z,98251.28
2022-08-20T12:03:22.027Z,98244.41
2022-08-20T12:06:24.748Z,98248.06
2022-08-20T12:09:27.979Z,98243.75
2022-08-20T12:12:30.774Z,98244.31
2022-08-20T12:15:35.017Z,98240.34
2022-08-20T12:18:37.762Z,98255.06
2022-08-20T12:21:40.724Z,98247.00
2022-08-20T12:24:43.546Z,98249.38
2022-08-20T12:27:47.013Z,98247.22
2022-08-20T12:30:51.208Z,98250.97
2022-08-20T12:33:53.941Z,98245.72
2022-08-20T12:37:02.712Z,98238.84
2022-08-20T12:40:08.919Z,98239.16
2022-08-20T12:43:11.767Z,98232.81
2022-08-20T12:46:15.817Z,98259.09
2022-08-20T12:49:18.776Z,98260.03
2022-08-20T12:52:22.694Z,98249.44
2022-08-20T12:55:25.576Z,98247.00
2022-08-20T12:58:28.265Z,98247.06
2022-08-20T13:01:32.393Z,98245.94
2022-08-20T13:04:35.203Z,98245.84
2022-08-20T13:07:38.921Z,98243.47
2022-08-20T13:10:45.753Z,98243.38
2022-08-20T13:13:48.585Z,98245.88
2022-08-20T13:16:57.770Z,98238.63
2022-08-20T13:20:03.997Z,98242.50
2022-08-20T13:23:07.201Z,98241.66
2022-08-20T13:26:09.962Z,98241.97
2022-08-20T13:29:13.573Z,98245.03
2022-08-20T13:32:18.038Z,98243.84
2022-08-20T13:35:21.518Z,98235.72
2022-08-20T13:38:25.239Z,98238.72
2022-08-20T13:41:28.331Z,98242.31
2022-08-20T13:44:33.191Z,98231.34
2022-08-20T13:47:39.983Z,98231.94
2022-08-20T13:50:42.872Z,98229.72
2022-08-20T13:53:45.601Z,98236.81
2022-08-20T13:56:49.646Z,98234.94
2022-08-20T13:59:54.922Z,98220.56
2022-08-20T14:02:59.219Z,98223.09
2022-08-20T14:06:02.227Z,98223.44
2022-08-20T14:09:05.043Z,98226.78
2022-08-20T14:12:09.822Z,98226.97
2022-08-20T14:15:13.070Z,98219.94
2022-08-20T14:18:17.182Z,98213.06
2022-08-20T14:21:19.942Z,98213.13
2022-08-20T14:24:22.641Z,98212.09
2022-08-20T14:27:30.685Z,98218.50
2022-08-20T14:30:34.137Z,98213.63
2022-08-20T14:33:41.338Z,98213.47
2022-08-20T14:36:47.181Z,98200.16
2022-08-20T14:39:54.323Z,98192.66
2022-08-20T14:42:57.477Z,98191.44
2022-08-20T14:46:00.657Z,98180.19
2022-08-20T14:49:04.736Z,98184.06
2022-08-20T14:52:07.834Z,98171.06
2022-08-20T14:55:17.841Z,98181.84
2022-08-20T14:58:20.573Z,98184.88
2022-08-20T15:01:23.341Z,98185.84
2022-08-20T15:04:27.510Z,98175.31
2022-08-20T15:07:35.837Z,98168.94
2022-08-20T15:10:39.073Z,98171.22
2022-08-20T15:13:41.822Z,98166.13
2022-08-20T15:16:44.893Z,98172.28
2022-08-20T15:19:49.969Z,98170.91
2022-08-20T15:22:53.132Z,98165.91
2022-08-20T15:25:55.877Z,98156.16
2022-08-20T15:28:58.596Z,98157.00
2022-08-20T15:32:01.279Z,98155.44
2022-08-20T15:35:07.366Z,98165.31
2022-08-20T15:38:10.047Z,98152.34
2022-08-20T15:41:12.743Z,98152.75
2022-08-20T15:44:15.466Z,98152.34
2022-08-20T15:47:24.607Z,98153.16
2022-08-20T15:50:41.983Z,98157.06
2022-08-20T15:53:53.257Z,98164.59
2022-08-20T15:57:02.552Z,98161.44
2022-08-20T16:00:13.259Z,98168.91
2022-08-20T16:03:36.389Z,98175.19
2022-08-20T16:06:44.026Z,98172.81
2022-08-20T16:10:02.196Z,98169.66
2022-08-20T16:13:10.930Z,98177.91
2022-08-20T16:16:21.073Z,98186.94
2022-08-20T16:19:27.241Z,98184.19
2022-08-20T16:22:32.330Z,98185.28
2022-08-20T16:25:45.253Z,98188.81
2022-08-20T16:28:57.882Z,98179.94
2022-08-20T16:32:04.354Z,98189.88
2022-08-20T16:35:30.531Z,98190.94
2022-08-20T16:38:41.986Z,98189.56
2022-08-20T16:41:46.913Z,98193.34
2022-08-20T16:44:53.861Z,98189.75
2022-08-20T16:48:02.208Z,98190.72
2022-08-20T16:51:09.729Z,98192.16
2022-08-20T16:54:13.797Z,98195.19
2022-08-20T16:57:18.266Z,98189.97
2022-08-20T17:00:25.306Z,98196.53
2022-08-20T17:03:31.592Z,98195.59
2022-08-20T17:06:47.681Z,98199.56
2022-08-20T17:09:52.634Z,98199.72
2022-08-20T17:12:59.428Z,98193.78
2022-08-20T17:16:04.535Z,98197.59
2022-08-20T17:19:13.530Z,98191.53
2022-08-20T17:22:19.646Z,98193.38
2022-08-20T17:25:35.704Z,98197.91
2022-08-20T17:28:38.546Z,98199.00
2022-08-20T17:31:44.528Z,98200.75
2022-08-20T17:34:49.797Z,98203.38
2022-08-20T17:37:54.390Z,98201.66
2022-08-20T17:41:02.854Z,98202.34
2022-08-20T17:44:07.905Z,98199.84
2022-08-20T17:47:16.145Z,98203.09
2022-08-20T17:50:22.061Z,98208.44
2022-08-20T17:53:29.450Z,98207.47
2022-08-20T17:56:40.188Z,98208.84
2022-08-20T18:00:00.678Z,98214.06
2022-08-20T18:03:16.096Z,98213.06
2022-08-20T18:06:29.852Z,98208.53
2022-08-20T18:09:44.678Z,98210.34
2022-08-20T18:12:58.787Z,98207.47
2022-08-20T18:16:03.397Z,98216.69
2022-08-20T18:19:15.353Z,98216.03
2022-08-20T18:22:21.574Z,98218.88
2022-08-20T18:25:31.958Z,98219.44
2022-08-20T18:28:39.707Z,98220.78
2022-08-20T18:31:46.997Z,98222.09
2022-08-20T18:34:51.088Z,98228.13
2022-08-20T18:37:55.115Z,98229.00
2022-08-20T18:41:13.826Z,98230.22
2022-08-20T18:44:29.861Z,98234.28
2022-08-20T18:47:46.654Z,98233.31
2022-08-20T18:50:55.024Z,98237.00
2022-08-20T18:53:57.791Z,98241.03
2022-08-20T18:57:09.078Z,98240.66
2022-08-20T19:00:18.058Z,98230.81
2022-08-20T19:03:27.542Z,98238.28
2022-08-20T19:06:40.348Z,98244.31
2022-08-20T19:09:57.098Z,98244.34
2022-08-20T19:13:20.408Z,98249.63
2022-08-20T19:16:34.589Z,98254.06
2022-08-20T19:19:37.910Z,98251.78
2022-08-20T19:22:42.636Z,98264.31
2022-08-20T19:25:54.809Z,98266.34
2022-08-20T19:29:01.887Z,98265.34
2022-08-20T19:32:09.502Z,98269.22
2022-08-20T19:35:18.880Z,98269.22
2022-08-20T19:38:22.270Z,98265.34
2022-08-20T19:41:31.472Z,98266.50
2022-08-20T19:44:46.565Z,98261.13
2022-08-20T19:48:06.430Z,98261.50
2022-08-20T19:51:20.475Z,98261.94
2022-08-20T19:54:32.267Z,98260.69
2022-08-20T19:57:44.374Z,98265.69
2022-08-20T20:00:56.096Z,98266.50
2022-08-20T20:04:06.019Z,98264.44
2022-08-20T20:07:19.732Z,98271.59
2022-08-20T20:10:35.373Z,98269.78
2022-08-20T20:13:40.951Z,98263.44
2022-08-20T20:16:45.200Z,98265.00
2022-08-20T20:20:00.610Z,98261.81
2022-08-20T20:23:20.120Z,98276.94
2022-08-20T20:26:38.558Z,98267.84
2022-08-20T20:29:47.736Z,98268.38
2022-08-20T20:32:54.414Z,98275.38
2022-08-20T20:36:07.912Z,98271.63
2022-08-20T20:39:25.814Z,98270.94
2022-08-20T20:42:42.402Z,98270.81
2022-08-20T20:46:03.377Z,98269.09
2022-08-20T20:49:22.610Z,98264.69
2022-08-20T20:52:48.645Z,98265.69
2022-08-20T20:55:57.155Z,98262.03
2022-08-20T20:59:07.370Z,98265.09
2022-08-20T21:02:14.671Z,98256.53
2022-08-20T21:05:23.987Z,98255.53
2022-08-20T21:08:30.998Z,98269.34
2022-08-20T21:11:39.368Z,98264.13
2022-08-20T21:14:44.494Z,98257.75
2022-08-20T21:17:48.501Z,98262.41
2022-08-20T21:20:55.712Z,98260.03
2022-08-20T21:24:01.462Z,98264.66
2022-08-20T21:27:16.849Z,98257.63
2022-08-20T21:30:24.226Z,98269.28
2022-08-20T21:33:33.159Z,98268.19
2022-08-20T21:36:40.790Z,98268.59
2022-08-20T21:39:48.452Z,98268.47
2022-08-20T21:42:55.180Z,98269.44
2022-08-20T21:46:02.346Z,98262.59
2022-08-20T21:49:09.409Z,98259.63
2022-08-20T21:52:15.616Z,98260.31
2022-08-20T21:55:22.823Z,98269.91
2022-08-20T21:58:28.582Z,98267.06
2022-08-20T22:01:34.043Z,98277.78
2022-08-20T22:04:43.123Z,98279.59
2022-08-20T22:07:48.286Z,98275.00
2022-08-20T22:10:58.788Z,98279.03
2022-08-20T22:14:11.368Z,98278.75
2022-08-20T22:17:18.718Z,98277.53
2022-08-20T22:20:25.253Z,98277.06
2022-08-20T22:23:32.164Z,98290.69
2022-08-20T22:26:45.208Z,98291.38
2022-08-20T22:29:53.196Z,98290.59
2022-08-20T22:33:06.981Z,98289.69
2022-08-20T22:36:15.128Z,98299.13
2022-08-20T22:39:20.880Z,98303.16
2022-08-20T22:42:30.318Z,98295.47
2022-08-20T22:45:38.743Z,98297.41
2022-08-20T22:48:49.531Z,98298.53
2022-08-20T22:51:58.638Z,98296.13
2022-08-20T22:55:06.025Z,98294.22
2022-08-20T22:58:13.732Z,98294.72
2022-08-20T23:01:20.610Z,98296.28
2022-08-20T23:04:30.366Z,98293.75
2022-08-20T23:07:39.241Z,98298.72
2022-08-20T23:10:48.353Z,98297.59
2022-08-20T23:13:59.079Z,98290.25
2022-08-20T23:17:13.767Z,98288.50
2022-08-20T23:20:20.857Z,98299.69
2022-08-20T23:23:29.461Z,98294.59
2022-08-20T23:26:35.400Z,98295.84
2022-08-20T23:29:47.157Z,98298.41
2022-08-20T23:32:56.275Z,98288.16
2022-08-20T23:36:05.667Z,98290.06
2022-08-20T23:39:12.748Z,98294.72
2022-08-20T23:42:21.039Z,98289.44
2022-08-20T23:45:32.414Z,98287.22
2022-08-20T23:48:40.143Z,98283.41
2022-08-20T23:51:46.898Z,98288.34
2022-08-20T23:54:55.116Z,98277.63
2022-08-20T23:58:06.064Z,98277.81
